Widener, Arkansas
Current Conditions -  °F | °C
As of 6:53 PM on Sunday 21 Dec 2014 (Local Time) from KAWM Reporting Station
Clear Clear  
Wind Chill: 45°   Ceiling: Unl
Heat Index: 45°   Visibility: 10mi
Dew Point: 35°   Wind: 3mph
Humidity: 68%   Direction: 110°ESE
Pressure: 29.98"   Gusts: NA
Location:  35.02°N, 90.68°W
Report Text: KAWM 220053Z AUTO 11003KT 10SM CLR 07/02 A2998 RMK AO2 SLP155 T00720017 $
Loading
Personal Weather Stations






























Interactive Weather Map New forecast layout! Learn more

10-Day Weather Forecast

Advertisements
Track Severe Weather on mobile